Time;durP1;ratioP1;P1;durP2;ratioP2;P2;SDS_P1;SDS_P2;PMS_P1;PMS_P2;Temp;Humidity;BMP_temperature;BMP_pressure;BME280_temperature;BME280_humidity;BME280_pressure;Samples;Min_cycle;Max_cycle;Signal;HPM_P1;HPM_P2
2022/04/26 03:37:40;;;;;;;65.90;40.05;;;7.30;99.90;;;;;;4992673;28;20863;-71
2022/04/26 03:40:07;;;;;;;63.92;41.05;;;7.20;99.90;;;;;;4996573;28;20052;-71
2022/04/26 03:42:35;;;;;;;65.20;39.22;;;7.20;99.90;;;;;;4994874;28;20034;-71
2022/04/26 03:45:02;;;;;;;66.70;41.08;;;7.20;99.90;;;;;;4995312;28;20135;-71
2022/04/26 03:47:29;;;;;;;62.75;41.25;;;7.20;99.90;;;;;;4997693;28;20668;-70
2022/04/26 03:49:56;;;;;;;69.68;42.72;;;7.20;99.90;;;;;;4996356;28;20038;-71
2022/04/26 03:52:22;;;;;;;64.18;41.70;;;7.20;99.90;;;;;;4994291;28;21131;-70
2022/04/26 03:54:49;;;;;;;66.32;40.70;;;7.30;99.90;;;;;;4992198;28;20527;-70
2022/04/26 03:57:16;;;;;;;67.90;41.83;;;7.30;99.90;;;;;;4995321;28;20076;-70
2022/04/26 03:59:43;;;;;;;68.13;41.05;;;7.40;99.90;;;;;;4995009;28;20046;-70
2022/04/26 04:02:10;;;;;;;65.72;41.28;;;7.30;99.90;;;;;;5010646;28;20057;-70
2022/04/26 04:04:37;;;;;;;68.45;41.67;;;7.30;99.90;;;;;;4994088;28;20077;-69
2022/04/26 04:07:04;;;;;;;73.70;41.80;;;7.20;99.90;;;;;;5010098;28;20057;-70
2022/04/26 04:09:31;;;;;;;69.85;41.42;;;7.20;99.90;;;;;;4995842;28;20046;-70
2022/04/26 04:11:58;;;;;;;74.95;42.75;;;7.20;99.90;;;;;;5007471;28;20858;-70
2022/04/26 04:14:25;;;;;;;75.70;44.28;;;7.30;99.90;;;;;;4993429;28;20065;-70
2022/04/26 04:16:55;;;;;;;70.72;43.67;;;7.20;99.90;;;;;;4996129;28;20988;-71
2022/04/26 04:19:22;;;;;;;75.22;44.88;;;7.20;99.90;;;;;;4994383;28;20104;-70
2022/04/26 04:21:50;;;;;;;71.65;45.70;;;7.30;99.90;;;;;;4993129;28;20045;-70
2022/04/26 04:24:18;;;;;;;73.28;45.03;;;7.20;99.90;;;;;;4990662;28;20050;-70
2022/04/26 04:26:45;;;;;;;70.68;44.40;;;7.20;99.90;;;;;;4994175;28;20041;-70
2022/04/26 04:29:12;;;;;;;76.82;46.63;;;7.20;99.90;;;;;;4994105;28;20046;-71
2022/04/26 04:31:41;;;;;;;72.22;46.03;;;7.30;99.90;;;;;;4994431;28;20049;-70
2022/04/26 04:34:08;;;;;;;76.63;47.63;;;7.30;99.90;;;;;;4994558;28;20605;-70
2022/04/26 04:36:35;;;;;;;75.68;47.10;;;7.40;99.90;;;;;;4993722;28;20793;-70
2022/04/26 04:39:03;;;;;;;76.65;47.60;;;7.40;99.90;;;;;;4994234;28;20073;-70
2022/04/26 04:41:36;;;;;;;76.57;48.33;;;7.60;99.90;;;;;;4994071;28;20038;-71
2022/04/26 04:44:07;;;;;;;83.10;48.03;;;7.50;99.90;;;;;;4994779;28;20053;-70
2022/04/26 04:46:34;;;;;;;75.90;48.90;;;7.50;99.90;;;;;;4993181;28;20050;-71
2022/04/26 04:49:01;;;;;;;70.97;44.97;;;7.40;99.90;;;;;;4995801;28;20057;-70
2022/04/26 04:51:29;;;;;;;74.72;47.17;;;7.50;99.90;;;;;;4994546;28;20076;-71
2022/04/26 04:53:55;;;;;;;79.70;47.78;;;7.50;99.90;;;;;;4990257;28;20049;-70
2022/04/26 04:56:26;;;;;;;72.53;46.50;;;7.70;99.90;;;;;;4990097;28;20050;-71
2022/04/26 04:58:54;;;;;;;71.25;46.92;;;7.80;99.90;;;;;;4993114;28;20485;-71
2022/04/26 05:01:21;;;;;;;69.47;46.95;;;7.70;99.90;;;;;;5007833;28;20661;-70
2022/04/26 05:03:48;;;;;;;65.93;44.00;;;7.70;99.90;;;;;;4993705;28;20117;-70
2022/04/26 05:06:15;;;;;;;68.18;45.10;;;7.60;99.90;;;;;;4976277;28;20045;-70
2022/04/26 05:08:46;;;;;;;64.50;43.42;;;7.60;99.90;;;;;;4975105;28;20493;-70
2022/04/26 05:11:13;;;;;;;64.63;44.78;;;7.80;99.90;;;;;;5001269;28;20560;-70
2022/04/26 05:13:39;;;;;;;70.72;46.38;;;7.80;99.90;;;;;;4992303;28;20464;-70
2022/04/26 05:16:08;;;;;;;63.92;43.70;;;7.80;99.90;;;;;;4992020;28;20064;-70
2022/04/26 05:18:35;;;;;;;68.47;46.72;;;7.90;99.90;;;;;;4995103;28;20149;-71
2022/04/26 05:21:05;;;;;;;69.57;46.25;;;8.00;99.90;;;;;;4991192;28;20058;-70
2022/04/26 05:26:18;;;;;;;;;;;8.40;99.90;;;;;;4990979;28;20089;-71
2022/04/26 05:28:46;;;;;;;63.65;44.65;;;8.50;99.90;;;;;;4970596;28;19983;-70
2022/04/26 05:31:14;;;;;;;59.70;44.15;;;8.50;99.90;;;;;;4974021;28;20066;-71
2022/04/26 05:33:41;;;;;;;61.65;43.45;;;8.60;99.90;;;;;;4972597;28;20046;-71
2022/04/26 05:36:08;;;;;;;58.00;42.35;;;8.50;99.90;;;;;;4974900;28;20405;-70
2022/04/26 05:38:34;;;;;;;59.20;42.55;;;8.50;99.90;;;;;;4954260;28;20046;-70
2022/04/26 05:41:02;;;;;;;61.47;45.35;;;8.60;99.90;;;;;;5004896;28;20049;-69
2022/04/26 05:43:30;;;;;;;59.17;44.67;;;8.60;99.90;;;;;;4990714;28;20053;-70
2022/04/26 05:45:57;;;;;;;55.53;40.58;;;8.50;99.90;;;;;;4992391;28;20045;-70
2022/04/26 05:48:24;;;;;;;62.20;42.55;;;8.40;99.90;;;;;;4991435;28;20070;-70
2022/04/26 05:50:51;;;;;;;56.50;43.00;;;8.40;99.90;;;;;;4992400;28;20682;-70
2022/04/26 05:53:18;;;;;;;62.75;44.60;;;8.40;99.90;;;;;;4992294;28;20050;-71
2022/04/26 05:55:44;;;;;;;60.97;42.03;;;8.40;99.90;;;;;;4988126;28;20073;-72
2022/04/26 05:58:11;;;;;;;65.65;45.25;;;8.40;99.90;;;;;;4992127;28;20066;-71
2022/04/26 06:00:38;;;;;;;62.88;44.70;;;8.50;99.90;;;;;;5002895;28;20038;-70
2022/04/26 06:03:06;;;;;;;59.75;44.97;;;8.60;99.90;;;;;;4991463;28;20139;-70
2022/04/26 06:05:34;;;;;;;64.25;45.85;;;8.60;99.90;;;;;;5007008;28;20216;-70
2022/04/26 06:08:01;;;;;;;61.08;45.95;;;8.70;99.90;;;;;;4991303;28;20046;-71
2022/04/26 06:10:28;;;;;;;64.03;45.08;;;8.80;99.90;;;;;;4992101;28;20034;-71
2022/04/26 06:12:55;;;;;;;61.55;44.33;;;8.90;99.90;;;;;;4987647;28;20041;-70
2022/04/26 06:15:22;;;;;;;61.45;45.53;;;8.90;99.90;;;;;;5007063;28;20070;-70
2022/04/26 06:17:49;;;;;;;62.35;45.80;;;8.80;99.90;;;;;;4991453;28;20119;-70
2022/04/26 06:20:16;;;;;;;63.17;46.15;;;8.90;99.90;;;;;;5007012;28;20050;-70
2022/04/26 06:22:43;;;;;;;57.55;43.97;;;8.90;99.90;;;;;;4990476;28;20614;-71
2022/04/26 06:25:10;;;;;;;60.42;44.35;;;8.90;99.90;;;;;;4983907;28;20053;-70
2022/04/26 06:27:37;;;;;;;62.15;43.67;;;8.90;99.90;;;;;;4990323;28;20105;-71
2022/04/26 06:30:05;;;;;;;58.92;45.40;;;9.00;99.90;;;;;;4990825;28;20458;-71
2022/04/26 06:32:32;;;;;;;51.20;44.13;;;9.10;99.90;;;;;;4990732;28;20453;-72
2022/04/26 06:34:58;;;;;;;57.70;44.60;;;9.40;99.90;;;;;;5007432;28;20427;-71
2022/04/26 06:37:25;;;;;;;51.75;43.38;;;9.40;99.90;;;;;;5010783;28;20148;-71
2022/04/26 06:39:53;;;;;;;56.20;46.63;;;9.50;99.90;;;;;;4992189;28;20387;-71
2022/04/26 06:42:20;;;;;;;55.72;45.28;;;9.50;99.90;;;;;;5009496;28;20049;-71
2022/04/26 06:44:47;;;;;;;56.20;45.92;;;9.50;99.90;;;;;;4995005;28;20055;-70
2022/04/26 06:47:14;;;;;;;55.60;46.05;;;9.40;99.90;;;;;;5010162;28;20056;-70
2022/04/26 06:49:40;;;;;;;53.13;44.33;;;9.30;99.90;;;;;;4993142;28;20137;-72
2022/04/26 06:52:07;;;;;;;59.97;44.70;;;9.40;99.90;;;;;;5009219;28;20049;-71
2022/04/26 06:54:34;;;;;;;61.72;46.97;;;9.40;99.90;;;;;;4984699;28;20058;-70
2022/04/26 06:57:02;;;;;;;59.13;46.72;;;9.30;99.90;;;;;;4993088;28;20264;-71
2022/04/26 06:59:29;;;;;;;64.47;49.13;;;9.30;99.90;;;;;;4993258;28;20042;-71
2022/04/26 07:01:56;;;;;;;62.97;49.08;;;9.40;99.90;;;;;;5009247;28;20049;-71
2022/04/26 07:04:23;;;;;;;61.15;45.78;;;9.40;99.90;;;;;;4992285;28;20046;-71
2022/04/26 07:06:51;;;;;;;62.47;46.75;;;9.40;99.90;;;;;;5009528;28;20049;-71
2022/04/26 07:09:19;;;;;;;56.83;45.30;;;9.40;99.90;;;;;;5012605;28;20157;-71
2022/04/26 07:11:46;;;;;;;58.20;45.13;;;9.40;99.90;;;;;;5009314;28;20234;-71
2022/04/26 07:14:13;;;;;;;64.25;47.83;;;9.30;99.90;;;;;;4995958;28;20058;-71
2022/04/26 07:16:48;;;;;;;55.03;44.75;;;9.30;99.90;;;;;;4994991;28;20046;-71
2022/04/26 07:19:15;;;;;;;57.28;43.75;;;9.40;99.90;;;;;;4994543;28;20050;-71
2022/04/26 07:21:44;;;;;;;59.38;46.88;;;9.50;99.90;;;;;;4994533;28;20050;-71
2022/04/26 07:24:33;;;;;;;59.28;46.47;;;9.50;99.90;;;;;;4990845;28;20401;-72
2022/04/26 07:27:00;;;;;;;58.58;45.97;;;9.70;99.90;;;;;;5008862;28;20415;-70
2022/04/26 07:29:27;;;;;;;57.30;44.40;;;9.80;99.90;;;;;;4996926;28;20050;-70
2022/04/26 07:31:54;;;;;;;60.05;45.30;;;9.70;99.90;;;;;;4992479;28;20058;-71
2022/04/26 07:34:26;;;;;;;57.05;45.78;;;9.60;99.90;;;;;;4992719;28;20081;-71
2022/04/26 07:36:59;;;;;;;58.47;45.53;;;9.80;99.90;;;;;;4994306;28;20565;-70
2022/04/26 07:39:26;;;;;;;55.28;43.20;;;10.00;99.90;;;;;;5011099;28;20072;-71
2022/04/26 07:41:54;;;;;;;58.65;44.67;;;10.10;99.90;;;;;;4993947;28;20049;-71
2022/04/26 07:44:21;;;;;;;58.97;46.97;;;10.10;99.90;;;;;;4994756;28;20046;-72
2022/04/26 07:46:50;;;;;;;59.97;46.58;;;10.20;99.90;;;;;;4994391;28;20049;-70
2022/04/26 07:49:19;;;;;;;54.88;44.60;;;10.10;99.90;;;;;;5011963;23;20148;-75
2022/04/26 07:51:47;;;;;;;59.65;47.88;;;10.40;99.90;;;;;;4989359;28;20718;-74
2022/04/26 07:54:16;;;;;;;61.80;48.08;;;10.70;99.90;;;;;;4990156;28;20497;-74
2022/04/26 07:56:44;;;;;;;59.88;48.95;;;10.70;99.90;;;;;;4993398;28;20438;-75
2022/04/26 07:59:12;;;;;;;56.53;49.83;;;11.10;99.90;;;;;;5000740;28;20422;-74
2022/04/26 08:01:39;;;;;;;58.08;50.38;;;11.40;99.90;;;;;;4991779;28;20038;-74
2022/04/26 08:04:07;;;;;;;54.67;48.70;;;11.50;99.90;;;;;;4996560;28;20041;-75
2022/04/26 08:06:34;;;;;;;57.63;51.83;;;11.80;99.90;;;;;;5000682;28;20041;-75
2022/04/26 08:09:00;;;;;;;57.45;51.60;;;12.10;99.90;;;;;;5001259;28;20058;-74
2022/04/26 08:11:30;;;;;;;61.92;55.63;;;12.30;99.90;;;;;;4994473;28;20196;-75
2022/04/26 08:13:57;;;;;;;55.75;50.13;;;12.30;99.90;;;;;;4975251;28;20276;-74
2022/04/26 08:16:24;;;;;;;54.10;48.47;;;12.10;99.90;;;;;;4988159;28;20054;-74
2022/04/26 08:18:51;;;;;;;57.33;51.15;;;12.10;99.90;;;;;;4983893;28;20054;-75
2022/04/26 08:21:18;;;;;;;56.60;50.78;;;12.30;99.90;;;;;;4994188;28;20058;-75
2022/04/26 08:29:18;;;;;;;54.35;48.90;;;12.50;99.90;;;;;;4986023;28;20057;-74
2022/04/26 08:31:45;;;;;;;55.33;49.88;;;12.40;99.90;;;;;;4990045;28;20058;-74
2022/04/26 08:34:12;;;;;;;53.75;48.33;;;12.20;99.90;;;;;;5000551;28;20038;-75
2022/04/26 08:36:39;;;;;;;55.28;49.70;;;12.20;99.90;;;;;;5000216;28;20049;-75
2022/04/26 08:39:06;;;;;;;53.65;48.03;;;12.00;99.90;;;;;;4986332;28;20038;-75
2022/04/26 08:41:34;;;;;;;51.38;46.22;;;11.90;99.90;;;;;;4997608;28;20316;-75
2022/04/26 08:44:01;;;;;;;48.50;43.70;;;12.10;99.90;;;;;;4995667;28;20057;-75
2022/04/26 08:50:59;;;;;;;49.97;45.08;;;12.80;99.90;;;;;;5017265;28;20285;-74
2022/04/26 08:52:06;;;;;;;49.83;44.83;;;13.00;99.90;;;;;;4991169;28;20069;-74
2022/04/26 08:54:33;;;;;;;49.85;44.88;;;13.10;99.90;;;;;;4987725;28;20053;-75
2022/04/26 08:57:01;;;;;;;50.63;45.65;;;13.20;99.90;;;;;;4992039;28;20225;-75
2022/04/26 08:59:28;;;;;;;49.13;44.45;;;13.30;99.90;;;;;;4998539;28;20042;-74
2022/04/26 09:02:14;;;;;;;48.20;43.53;;;13.50;99.90;;;;;;4989683;28;20476;-74
2022/04/26 09:04:42;;;;;;;49.47;44.53;;;13.80;99.90;;;;;;4982951;28;20545;-74
2022/04/26 09:07:11;;;;;;;47.05;42.50;;;14.20;99.90;;;;;;4999511;28;20077;-74
2022/04/26 09:09:39;;;;;;;46.75;42.47;;;14.30;99.90;;;;;;5001471;28;20058;-75
2022/04/26 09:12:11;;;;;;;46.13;42.17;;;14.40;99.90;;;;;;4989228;28;20066;-74
2022/04/26 09:14:47;;;;;;;47.42;42.95;;;14.00;99.90;;;;;;4990154;28;20050;-74
2022/04/26 09:17:17;;;;;;;47.47;43.15;;;14.00;99.90;;;;;;4997346;28;20104;-74
2022/04/26 09:19:56;;;;;;;46.25;41.90;;;13.90;99.90;;;;;;5001872;28;20096;-75
2022/04/26 09:22:26;;;;;;;47.60;43.13;;;14.40;99.90;;;;;;4999246;28;20587;-74
2022/04/26 09:25:01;;;;;;;42.72;39.05;;;15.00;99.90;;;;;;4994150;28;20046;-75
2022/04/26 09:27:29;;;;;;;43.20;39.25;;;14.60;99.90;;;;;;4985533;28;20158;-75
2022/04/26 09:29:56;;;;;;;45.15;41.00;;;14.90;99.90;;;;;;4979880;28;20520;-75
2022/04/26 09:32:23;;;;;;;43.63;39.83;;;15.30;99.90;;;;;;4979438;28;20897;-75
2022/04/26 09:34:50;;;;;;;40.35;36.95;;;15.40;99.90;;;;;;4987771;28;20046;-74
2022/04/26 09:37:17;;;;;;;41.88;38.17;;;14.80;99.90;;;;;;4998238;28;20602;-73
2022/04/26 09:40:01;;;;;;;44.10;40.42;;;13.90;99.90;;;;;;4990588;28;20074;-75
2022/04/26 09:42:31;;;;;;;42.95;39.25;;;14.20;99.90;;;;;;4989077;28;20038;-75
2022/04/26 09:45:06;;;;;;;42.40;38.65;;;14.20;99.90;;;;;;4982806;28;20066;-74
2022/04/26 09:47:41;;;;;;;42.58;38.78;;;13.60;99.90;;;;;;4999996;28;20479;-75
2022/04/26 09:50:16;;;;;;;45.72;41.72;;;13.30;99.90;;;;;;4975375;28;20728;-74
2022/04/26 09:52:43;;;;;;;50.72;45.65;;;13.00;99.90;;;;;;4987666;28;20050;-76
2022/04/26 09:55:13;;;;;;;52.38;47.03;;;13.20;99.90;;;;;;4993483;28;20096;-75
2022/04/26 09:57:42;;;;;;;50.03;45.17;;;13.40;99.90;;;;;;4985997;28;20133;-74
2022/04/26 10:00:11;;;;;;;49.78;45.28;;;13.20;99.90;;;;;;4981361;28;20809;-75
2022/04/26 10:02:44;;;;;;;51.13;45.80;;;12.90;99.90;;;;;;4975148;28;20101;-74
2022/04/26 10:05:14;;;;;;;48.75;44.17;;;12.90;99.90;;;;;;4994159;28;20075;-75
2022/04/26 10:07:44;;;;;;;46.90;42.65;;;12.80;99.90;;;;;;4999630;28;20471;-75
2022/04/26 10:10:13;;;;;;;43.63;39.85;;;12.80;99.90;;;;;;4997051;28;20708;-74
2022/04/26 10:12:41;;;;;;;44.60;40.42;;;12.60;99.90;;;;;;4990389;28;20049;-74
2022/04/26 10:15:09;;;;;;;44.85;40.53;;;12.60;99.90;;;;;;4993035;28;20509;-75
2022/04/26 10:17:47;;;;;;;44.28;40.17;;;12.70;99.90;;;;;;4991998;28;20149;-75
2022/04/26 10:20:40;;;;;;;44.58;40.65;;;13.00;99.90;;;;;;4989447;28;20046;-75
2022/04/26 10:23:07;;;;;;;43.40;39.22;;;13.70;99.90;;;;;;4966124;28;20222;-74
2022/04/26 10:25:34;;;;;;;42.75;39.03;;;14.00;99.90;;;;;;4989559;28;20151;-75
2022/04/26 10:28:21;;;;;;;44.50;40.50;;;14.40;99.90;;;;;;4970469;28;20046;-75
2022/04/26 10:30:49;;;;;;;44.70;40.50;;;14.40;99.90;;;;;;4967752;28;20042;-74
2022/04/26 10:33:35;;;;;;;45.92;41.92;;;14.30;99.90;;;;;;4981471;28;20038;-75
2022/04/26 10:36:32;;;;;;;42.75;38.92;;;14.10;99.90;;;;;;4981649;28;20053;-74
2022/04/26 10:39:05;;;;;;;40.30;36.90;;;13.60;99.90;;;;;;4983335;28;20050;-75
2022/04/26 10:41:40;;;;;;;41.63;38.03;;;13.10;99.90;;;;;;4990711;28;20088;-74
2022/04/26 10:44:12;;;;;;;42.88;39.17;;;13.20;99.90;;;;;;4980842;28;20055;-74
2022/04/26 10:46:45;;;;;;;41.85;38.25;;;13.20;99.90;;;;;;4982248;28;20144;-75
2022/04/26 10:49:24;;;;;;;41.17;37.40;;;13.30;99.90;;;;;;4999209;28;20069;-75
2022/04/26 10:51:51;;;;;;;40.70;36.97;;;13.50;99.90;;;;;;4997665;28;20509;-75
2022/04/26 10:54:47;;;;;;;40.22;36.58;;;13.30;99.90;;;;;;4976906;28;20425;-74
2022/04/26 10:57:17;;;;;;;40.42;37.03;;;13.50;99.90;;;;;;4988753;28;20046;-75
2022/04/26 10:59:46;;;;;;;40.70;36.80;;;13.70;99.90;;;;;;4996894;28;20035;-74
2022/04/26 11:02:15;;;;;;;38.45;35.05;;;13.90;99.90;;;;;;4988151;28;20121;-76
2022/04/26 11:04:42;;;;;;;36.45;33.65;;;13.80;99.90;;;;;;4973944;28;20096;-75
2022/04/26 11:07:17;;;;;;;37.78;34.42;;;13.90;99.90;;;;;;4979737;28;20105;-75
2022/04/26 11:09:46;;;;;;;42.22;38.47;;;14.00;99.90;;;;;;4981718;28;20685;-75
2022/04/26 11:12:18;;;;;;;40.80;37.13;;;13.90;99.90;;;;;;4985267;28;20046;-75
2022/04/26 11:14:46;;;;;;;43.22;39.65;;;13.40;99.90;;;;;;4994104;28;20123;-75
2022/04/26 11:17:17;;;;;;;32.70;30.20;;;13.20;99.90;;;;;;4998076;28;20137;-74
2022/04/26 11:20:14;;;;;;;32.30;29.80;;;12.60;99.90;;;;;;4981490;28;20108;-75
2022/04/26 11:22:50;;;;;;;31.15;28.65;;;12.10;99.90;;;;;;4994769;28;20254;-75
2022/04/26 11:28:06;;;;;;;32.38;29.88;;;12.00;99.90;;;;;;4985829;28;20050;-74
2022/04/26 11:30:46;;;;;;;33.55;30.95;;;11.90;99.90;;;;;;4988359;28;20114;-74
2022/04/26 11:33:24;;;;;;;35.13;32.33;;;11.60;99.90;;;;;;4982909;28;20148;-75
2022/04/26 11:36:01;;;;;;;33.63;31.02;;;11.60;99.90;;;;;;4986751;28;20038;-74
2022/04/26 11:38:29;;;;;;;33.50;30.77;;;11.50;99.90;;;;;;4989998;28;20058;-74
2022/04/26 11:41:03;;;;;;;34.00;31.42;;;11.50;99.90;;;;;;4990267;28;20045;-74
2022/04/26 11:43:42;;;;;;;34.70;32.05;;;11.60;99.90;;;;;;4994621;28;20445;-74
2022/04/26 11:46:11;;;;;;;35.33;32.72;;;11.70;99.90;;;;;;5003538;28;20140;-74
2022/04/26 11:48:39;;;;;;;33.92;31.63;;;11.80;99.90;;;;;;4992424;28;20061;-75
2022/04/26 11:51:06;;;;;;;35.47;32.67;;;11.80;99.90;;;;;;5001714;28;20081;-74
2022/04/26 11:53:37;;;;;;;34.97;32.38;;;12.00;99.90;;;;;;4984005;28;20054;-74
2022/04/26 11:56:05;;;;;;;34.17;31.35;;;12.20;99.90;;;;;;4993229;28;20050;-74
2022/04/26 11:58:40;;;;;;;33.17;30.58;;;12.40;99.90;;;;;;4984333;28;20682;-74
2022/04/26 12:01:16;;;;;;;34.03;31.30;;;12.60;99.90;;;;;;5000044;28;20144;-74
2022/04/26 12:03:52;;;;;;;33.60;31.02;;;12.70;99.90;;;;;;5001176;28;20124;-75
2022/04/26 12:06:20;;;;;;;33.22;30.67;;;12.70;99.90;;;;;;4978706;28;20056;-74
2022/04/26 12:08:53;;;;;;;34.65;31.95;;;12.90;99.90;;;;;;4987826;28;20683;-74
2022/04/26 12:11:27;;;;;;;34.67;31.90;;;12.90;99.90;;;;;;4993226;28;20069;-74
2022/04/26 12:14:12;;;;;;;37.03;33.60;;;13.00;99.90;;;;;;4986612;28;20178;-75
2022/04/26 12:16:47;;;;;;;36.60;33.53;;;12.90;99.90;;;;;;4985195;28;20488;-75
2022/04/26 12:19:14;;;;;;;37.67;34.58;;;12.90;99.90;;;;;;4966346;28;20046;-75
2022/04/26 12:21:59;;;;;;;38.35;35.33;;;12.90;99.90;;;;;;4982826;28;20124;-75
2022/04/26 12:24:29;;;;;;;37.65;34.58;;;12.60;99.90;;;;;;4995121;28;20049;-75
2022/04/26 12:27:01;;;;;;;36.33;33.42;;;12.70;99.90;;;;;;4992826;28;20105;-76
2022/04/26 12:29:44;;;;;;;36.55;33.42;;;12.80;99.90;;;;;;4966326;28;20182;-75
2022/04/26 12:32:13;;;;;;;34.22;31.58;;;13.00;99.90;;;;;;4966497;28;20476;-74
2022/04/26 12:34:48;;;;;;;33.45;30.65;;;13.10;99.90;;;;;;4981898;28;20245;-74
2022/04/26 12:37:22;;;;;;;34.38;31.73;;;13.10;99.90;;;;;;4990766;28;20108;-74
2022/04/26 12:39:52;;;;;;;31.80;29.23;;;13.10;99.90;;;;;;4998531;28;20073;-73
2022/04/26 12:42:28;;;;;;;33.25;30.63;;;13.20;99.90;;;;;;4990677;28;20046;-75
2022/04/26 12:44:57;;;;;;;33.20;30.60;;;13.30;99.90;;;;;;4984166;28;20104;-75
2022/04/26 12:50:29;;;;;;;33.72;31.23;;;13.50;99.90;;;;;;4989907;28;20113;-75
2022/04/26 12:52:57;;;;;;;36.50;33.42;;;13.60;99.90;;;;;;4986399;28;20131;-74
2022/04/26 12:55:39;;;;;;;35.28;32.63;;;13.70;99.90;;;;;;4992677;28;20070;-74
2022/04/26 12:58:12;;;;;;;36.20;33.35;;;13.90;99.90;;;;;;5001381;28;20084;-75
2022/04/26 13:00:41;;;;;;;36.53;33.50;;;14.00;99.90;;;;;;4995943;28;20047;-74
2022/04/26 13:03:14;;;;;;;37.33;34.35;;;14.20;99.90;;;;;;4994130;28;20181;-74
2022/04/26 13:05:54;;;;;;;38.08;35.17;;;14.30;99.90;;;;;;4991095;28;20054;-74
2022/04/26 13:08:43;;;;;;;39.40;36.15;;;14.50;99.90;;;;;;4991132;28;20042;-74
2022/04/26 13:11:10;;;;;;;38.65;35.42;;;14.90;99.90;;;;;;4992965;28;20100;-74
2022/04/26 13:13:41;;;;;;;35.38;32.60;;;15.50;99.90;;;;;;4990120;28;20057;-74
2022/04/26 13:16:08;;;;;;;35.75;33.00;;;15.80;99.90;;;;;;4992226;28;20089;-75
2022/04/26 13:18:35;;;;;;;34.50;31.80;;;16.10;99.90;;;;;;4988156;28;20062;-74
2022/04/26 13:21:02;;;;;;;34.92;32.13;;;16.20;99.90;;;;;;4989868;28;20065;-74
2022/04/26 13:23:32;;;;;;;35.53;32.92;;;16.00;99.90;;;;;;4973982;28;20049;-74
2022/04/26 13:26:00;;;;;;;35.67;32.60;;;15.80;99.90;;;;;;4993580;28;20147;-74
2022/04/26 13:28:28;;;;;;;36.30;33.38;;;15.80;99.90;;;;;;4993411;28;20074;-75
2022/04/26 13:30:55;;;;;;;36.35;33.45;;;16.00;99.90;;;;;;4992389;28;20045;-75
2022/04/26 13:33:22;;;;;;;38.15;35.10;;;15.90;99.90;;;;;;4999546;28;20081;-75
2022/04/26 13:35:48;;;;;;;36.90;34.10;;;15.80;99.90;;;;;;4992431;28;20042;-75
2022/04/26 13:38:16;;;;;;;36.92;34.13;;;15.70;99.90;;;;;;4976409;28;20045;-75
2022/04/26 13:40:43;;;;;;;38.10;35.13;;;15.50;99.90;;;;;;4993195;28;20053;-74
2022/04/26 13:43:11;;;;;;;37.65;34.75;;;15.10;99.90;;;;;;4976526;28;20046;-74
2022/04/26 13:45:57;;;;;;;40.95;37.75;;;15.00;99.90;;;;;;4998184;28;20468;-75
2022/04/26 13:48:24;;;;;;;41.13;37.90;;;14.60;99.90;;;;;;4995784;28;20054;-75
2022/04/26 13:50:51;;;;;;;39.67;36.60;;;14.10;99.90;;;;;;4999847;28;20092;-74
2022/04/26 13:53:17;;;;;;;39.05;35.85;;;14.00;99.90;;;;;;4993861;28;20065;-74
2022/04/26 13:55:44;;;;;;;38.38;35.20;;;13.70;99.90;;;;;;4995418;28;20149;-74
2022/04/26 13:58:11;;;;;;;36.88;33.70;;;13.60;99.90;;;;;;5007110;28;20057;-78
2022/04/26 14:00:38;;;;;;;33.13;30.05;;;13.30;99.90;;;;;;5009385;28;20052;-78
2022/04/26 14:03:13;;;;;;;34.35;30.70;;;11.60;99.90;;;;;;5006675;28;20089;-78
2022/04/26 14:05:46;;;;;;;54.00;35.35;;;10.50;99.90;;;;;;5015880;28;20112;-79
2022/04/26 14:08:13;;;;;;;58.40;41.50;;;9.50;99.90;;;;;;4999566;28;20096;-79
2022/04/26 14:10:39;;;;;;;58.60;39.65;;;8.80;99.90;;;;;;4987847;28;20551;-77
2022/04/26 14:13:06;;;;;;;54.58;35.47;;;8.60;99.90;;;;;;4983491;28;20061;-79
2022/04/26 14:23:49;;;;;;;45.78;32.60;;;8.70;99.90;;;;;;4987587;28;20122;-78
2022/04/26 14:26:16;;;;;;;47.22;33.38;;;8.90;99.90;;;;;;4996045;28;20482;-78
2022/04/26 14:28:44;;;;;;;46.00;31.23;;;8.90;99.90;;;;;;4990929;28;20054;-77
2022/04/26 14:31:10;;;;;;;59.40;37.42;;;9.00;99.90;;;;;;4993811;28;20487;-77
2022/04/26 14:33:38;;;;;;;51.40;31.92;;;9.20;99.90;;;;;;5003767;28;20077;-77
2022/04/26 14:36:05;;;;;;;50.38;35.95;;;9.20;99.90;;;;;;4979978;28;20046;-77
2022/04/26 14:38:32;;;;;;;50.92;34.67;;;9.20;99.90;;;;;;4966999;28;20054;-77
2022/04/26 14:40:59;;;;;;;62.83;37.78;;;9.40;99.90;;;;;;4991469;28;20061;-77
2022/04/26 14:43:26;;;;;;;50.55;33.65;;;9.50;99.90;;;;;;4998767;28;20472;-77
2022/04/26 14:45:55;;;;;;;54.22;34.17;;;9.60;99.90;;;;;;5004071;28;20049;-77
2022/04/26 14:48:23;;;;;;;52.78;35.08;;;9.50;99.90;;;;;;5000579;28;20151;-78
2022/04/26 14:51:11;;;;;;;56.33;36.67;;;9.40;99.90;;;;;;5001062;28;20141;-77
2022/04/26 14:53:41;;;;;;;58.53;37.67;;;9.50;99.90;;;;;;4990632;28;20748;-77
2022/04/26 14:56:12;;;;;;;60.10;38.45;;;9.70;99.90;;;;;;4989499;28;20046;-77
2022/04/26 14:59:01;;;;;;;41.30;31.00;;;9.90;99.90;;;;;;5006365;28;20050;-77
2022/04/26 15:01:35;;;;;;;50.58;35.13;;;10.10;99.90;;;;;;5004117;28;20342;-77
2022/04/26 15:04:02;;;;;;;57.53;36.08;;;10.00;99.90;;;;;;5004528;28;20213;-77
2022/04/26 15:06:28;;;;;;;48.85;35.00;;;10.00;99.90;;;;;;4998458;28;20673;-78
2022/04/26 15:11:43;;;;;;;56.83;38.00;;;10.30;99.90;;;;;;5006655;28;20042;-77
2022/04/26 15:16:55;;;;;;;57.80;39.40;;;10.30;99.90;;;;;;5008427;23;20106;-73
2022/04/26 15:19:22;;;;;;;59.22;41.22;;;10.20;99.90;;;;;;4957875;28;20061;-73
2022/04/26 15:21:48;;;;;;;64.65;41.70;;;10.20;99.90;;;;;;4991224;28;20042;-73
2022/04/26 15:24:15;;;;;;;71.40;44.08;;;10.10;99.90;;;;;;4964868;28;20094;-73
2022/04/26 15:26:42;;;;;;;46.88;32.70;;;10.20;99.90;;;;;;4982605;28;20259;-74
2022/04/26 15:29:09;;;;;;;47.00;31.45;;;10.00;99.90;;;;;;4974477;28;20473;-73
2022/04/26 15:31:36;;;;;;;60.83;40.92;;;9.80;99.90;;;;;;4993289;28;20777;-73
2022/04/26 15:34:03;;;;;;;48.55;32.40;;;9.90;99.90;;;;;;4990875;28;20659;-73
2022/04/26 15:36:30;;;;;;;54.05;38.17;;;9.90;99.90;;;;;;4992348;28;20253;-74
2022/04/26 15:38:58;;;;;;;59.15;38.75;;;9.80;99.90;;;;;;4994446;28;20049;-74
2022/04/26 15:41:26;;;;;;;57.22;38.67;;;10.00;99.90;;;;;;4973695;28;20481;-74
2022/04/26 15:43:53;;;;;;;72.50;48.10;;;10.10;99.90;;;;;;4989209;28;20603;-74
2022/04/26 15:46:39;;;;;;;64.47;43.53;;;10.00;99.90;;;;;;4993952;28;20805;-74
2022/04/26 15:49:06;;;;;;;50.00;36.35;;;10.00;99.90;;;;;;4991850;28;20708;-74
2022/04/26 15:51:34;;;;;;;55.20;41.72;;;10.00;99.90;;;;;;4984006;28;20060;-73
2022/04/26 15:54:01;;;;;;;67.30;47.42;;;10.10;99.90;;;;;;4984281;28;20063;-73
2022/04/26 15:56:28;;;;;;;64.13;45.28;;;10.00;99.90;;;;;;4986024;28;20034;-73
2022/04/26 15:58:56;;;;;;;75.90;50.25;;;10.00;99.90;;;;;;4976208;28;20042;-74
2022/04/26 16:01:25;;;;;;;80.30;57.13;;;10.10;99.90;;;;;;4981813;28;20541;-73
2022/04/26 16:03:56;;;;;;;83.03;62.25;;;10.20;99.90;;;;;;4960064;28;20432;-73
2022/04/26 16:06:22;;;;;;;83.97;54.20;;;10.00;99.90;;;;;;4977344;28;20045;-73
2022/04/26 16:08:49;;;;;;;73.10;52.05;;;9.80;99.90;;;;;;4972122;28;20034;-75
2022/04/26 16:22:20;;;;;;;43.10;31.15;;;9.60;99.90;;;;;;4985185;28;20049;-75
2022/04/26 16:24:48;;;;;;;43.38;29.50;;;9.50;99.90;;;;;;4971431;28;20046;-75
2022/04/26 16:27:14;;;;;;;45.13;32.83;;;9.40;99.90;;;;;;4979243;28;20063;-73
2022/04/26 16:29:41;;;;;;;47.58;35.67;;;9.40;99.90;;;;;;4971700;28;20543;-73
2022/04/26 16:32:08;;;;;;;53.70;41.15;;;9.40;99.90;;;;;;4976720;28;20054;-73
2022/04/26 16:34:36;;;;;;;43.65;34.53;;;9.40;99.90;;;;;;4972134;28;20227;-73
2022/04/26 16:37:04;;;;;;;37.75;31.13;;;9.40;99.90;;;;;;4956277;28;20085;-73
2022/04/26 16:39:30;;;;;;;43.67;34.72;;;9.30;99.90;;;;;;4974359;28;20057;-73
2022/04/26 16:41:57;;;;;;;57.83;52.30;;;9.30;99.90;;;;;;4974511;28;20069;-73
2022/04/26 16:44:24;;;;;;;36.88;25.42;;;9.30;99.90;;;;;;4993250;28;20518;-73
2022/04/26 16:46:51;;;;;;;33.95;26.00;;;9.40;99.90;;;;;;4991806;28;20073;-72
2022/04/26 16:49:18;;;;;;;41.30;29.48;;;9.30;99.90;;;;;;4991801;28;20050;-73
2022/04/26 16:51:45;;;;;;;28.58;24.48;;;9.50;99.90;;;;;;4988077;28;20068;-73
2022/04/26 16:54:14;;;;;;;35.22;26.75;;;9.40;99.90;;;;;;4970879;28;20056;-73
2022/04/26 16:56:44;;;;;;;33.30;25.50;;;9.50;99.90;;;;;;4973991;28;20049;-73
2022/04/26 16:59:13;;;;;;;36.60;29.10;;;9.50;99.90;;;;;;4973087;28;20129;-73
2022/04/26 17:01:40;;;;;;;39.67;31.30;;;9.50;99.90;;;;;;4972798;28;20054;-73